Terminal Aerodrome Forecast
Issued by NWS

Home | Current Version | Previous Version | Text Only | Print | Product List | Glossary Off
Versions: 1 2 3 4 5 6 7 8 9 10 11 12 13 14 15 16 17 18 19 20 21 22 23 24 25 26 27 28 29 30 31 32 33 34

000
FTUS43 KLOT 181300 AAA
TAFORD
TAF AMD
KORD 181303Z 1813/1918 02008KT 3SM BCFG BR BKN002
     FM181400 04007KT 6SM BR SCT007 BKN012
     FM181800 06010KT P6SM FEW025 SCT250
     FM190100 07005KT P6SM SCT250
     FM190900 15006KT P6SM SKC
     FM191500 18012G18KT P6SM SCT250=

USA.gov is the U.S. government's official web portal to all federal, state and local government web resources and services.